Time;durP1;ratioP1;P1;durP2;ratioP2;P2;SDS_P1;SDS_P2;PMS_P1;PMS_P2;Temp;Humidity;BMP_temperature;BMP_pressure;BME280_temperature;BME280_humidity;BME280_pressure;Samples;Min_cycle;Max_cycle;Signal;HPM_P1;HPM_P2
2021/05/02 00:01:28;;;;;;;17.20;12.40;;;7.60;99.90;;;;;;5069613;28;20202;-81
2021/05/02 00:03:55;;;;;;;17.07;12.00;;;7.50;99.90;;;;;;5072909;28;20233;-81
2021/05/02 00:06:21;;;;;;;17.13;11.43;;;7.50;99.90;;;;;;5072656;28;20396;-80
2021/05/02 00:08:49;;;;;;;16.40;11.70;;;7.40;99.90;;;;;;5072730;28;20194;-81
2021/05/02 00:11:15;;;;;;;18.77;12.13;;;7.40;99.90;;;;;;5071882;28;20408;-81
2021/05/02 00:13:42;;;;;;;16.97;11.80;;;7.30;99.90;;;;;;5070791;28;20663;-81
2021/05/02 00:16:08;;;;;;;17.03;12.10;;;7.30;99.90;;;;;;5072526;28;20202;-81
2021/05/02 00:18:35;;;;;;;17.27;12.10;;;7.40;99.90;;;;;;5071382;28;20202;-81
2021/05/02 00:21:06;;;;;;;16.17;11.57;;;7.30;99.90;;;;;;5072567;28;20212;-81
2021/05/02 00:23:34;;;;;;;18.13;12.53;;;7.30;99.90;;;;;;5072454;28;20225;-80
2021/05/02 00:26:02;;;;;;;18.50;12.20;;;7.30;99.90;;;;;;5068680;28;20202;-80
2021/05/02 00:28:30;;;;;;;19.00;12.70;;;7.30;99.90;;;;;;5071335;28;20213;-80
2021/05/02 00:30:57;;;;;;;18.97;12.83;;;7.30;99.90;;;;;;5072567;28;20683;-80
2021/05/02 00:33:24;;;;;;;18.23;12.90;;;7.30;99.90;;;;;;5071215;28;20672;-80
2021/05/02 00:35:51;;;;;;;19.87;13.77;;;7.30;99.90;;;;;;5068600;28;20206;-80
2021/05/02 00:38:18;;;;;;;17.70;12.63;;;7.30;99.90;;;;;;5071622;28;20243;-80
2021/05/02 00:40:49;;;;;;;18.43;12.47;;;7.30;99.90;;;;;;5070106;28;20194;-80
2021/05/02 00:43:27;;;;;;;18.13;13.07;;;7.30;99.90;;;;;;5063466;28;20269;-80
2021/05/02 00:45:58;;;;;;;18.33;12.77;;;7.40;99.90;;;;;;5073330;28;20208;-80
2021/05/02 00:48:31;;;;;;;21.20;12.90;;;7.40;99.90;;;;;;5066215;28;20207;-80
2021/05/02 00:51:04;;;;;;;20.30;13.43;;;7.40;99.90;;;;;;5073168;28;20278;-80
2021/05/02 00:53:38;;;;;;;21.00;12.47;;;7.40;99.90;;;;;;5073395;28;20619;-80
2021/05/02 00:56:17;;;;;;;19.30;12.77;;;7.40;99.90;;;;;;5055529;28;20635;-81
2021/05/02 00:58:50;;;;;;;22.57;13.37;;;7.40;99.90;;;;;;5073242;28;20262;-81
2021/05/02 01:01:20;;;;;;;19.67;14.43;;;7.40;99.90;;;;;;5072647;28;20234;-81
2021/05/02 01:03:48;;;;;;;20.07;13.70;;;7.40;99.90;;;;;;5064530;28;20296;-81
2021/05/02 01:06:15;;;;;;;19.03;13.43;;;7.30;99.90;;;;;;5073235;28;20202;-81
2021/05/02 01:08:42;;;;;;;19.47;13.30;;;7.30;99.90;;;;;;5073115;28;20213;-81
2021/05/02 01:11:12;;;;;;;19.53;13.80;;;7.30;99.90;;;;;;5073002;28;20575;-80
2021/05/02 01:13:51;;;;;;;18.57;12.97;;;7.30;99.90;;;;;;5072525;28;20199;-81
2021/05/02 01:16:20;;;;;;;19.27;12.87;;;7.40;99.90;;;;;;5045861;28;20270;-80
2021/05/02 01:18:48;;;;;;;22.03;14.43;;;7.30;99.90;;;;;;5072811;28;20293;-80
2021/05/02 01:21:17;;;;;;;19.93;14.03;;;7.30;99.90;;;;;;5067958;28;20560;-80
2021/05/02 01:23:44;;;;;;;21.37;14.73;;;7.30;99.90;;;;;;5071612;28;20222;-80
2021/05/02 01:26:13;;;;;;;21.77;15.30;;;7.30;99.90;;;;;;5073155;28;20209;-80
2021/05/02 01:28:43;;;;;;;21.63;14.57;;;7.30;99.90;;;;;;5072370;28;20678;-80
2021/05/02 01:31:09;;;;;;;21.77;15.57;;;7.20;99.90;;;;;;5070903;28;20195;-80
2021/05/02 01:33:36;;;;;;;23.47;16.37;;;7.30;99.90;;;;;;5063838;28;20209;-80
2021/05/02 01:36:03;;;;;;;24.07;16.53;;;7.30;99.90;;;;;;5072823;28;20202;-80
2021/05/02 01:38:30;;;;;;;22.10;15.13;;;7.30;99.90;;;;;;5072303;28;20221;-80
2021/05/02 01:40:58;;;;;;;24.93;16.43;;;7.40;99.90;;;;;;5072443;28;20232;-80
2021/05/02 01:43:25;;;;;;;22.20;15.57;;;7.30;99.90;;;;;;5071794;28;20355;-80
2021/05/02 01:45:52;;;;;;;22.97;16.37;;;7.40;99.90;;;;;;5072296;28;20297;-80
2021/05/02 01:48:21;;;;;;;23.83;16.60;;;7.30;99.90;;;;;;5072084;28;20206;-80
2021/05/02 01:50:51;;;;;;;24.47;17.27;;;7.40;99.90;;;;;;5069458;28;20237;-80
2021/05/02 01:53:18;;;;;;;22.67;16.57;;;7.30;99.90;;;;;;5071758;28;20206;-80
2021/05/02 01:55:47;;;;;;;27.33;16.70;;;7.40;99.90;;;;;;5067255;28;20207;-80
2021/05/02 01:58:15;;;;;;;23.00;16.33;;;7.30;99.90;;;;;;5067542;28;20777;-81
2021/05/02 02:00:52;;;;;;;23.83;15.93;;;7.30;99.90;;;;;;5072183;28;20208;-80
2021/05/02 02:03:19;;;;;;;26.23;16.57;;;7.40;99.90;;;;;;5054398;28;20218;-80
2021/05/02 02:05:47;;;;;;;24.13;16.83;;;7.30;99.90;;;;;;5071650;28;20208;-80
2021/05/02 02:08:14;;;;;;;24.30;16.37;;;7.30;99.90;;;;;;5071411;28;20194;-80
2021/05/02 02:10:41;;;;;;;22.90;15.87;;;7.30;99.90;;;;;;5072275;28;20644;-80
2021/05/02 02:13:09;;;;;;;25.83;17.30;;;7.30;99.90;;;;;;5069816;28;20199;-80
2021/05/02 02:15:37;;;;;;;27.60;18.23;;;7.30;99.90;;;;;;5072268;28;20202;-80
2021/05/02 02:18:04;;;;;;;25.53;17.47;;;7.30;99.90;;;;;;5067953;28;20234;-80
2021/05/02 02:20:37;;;;;;;24.97;17.60;;;7.30;99.90;;;;;;5062620;28;20202;-80
2021/05/02 02:23:09;;;;;;;25.50;17.20;;;7.20;99.90;;;;;;5071292;28;20206;-80
2021/05/02 02:25:44;;;;;;;26.03;17.83;;;7.30;99.90;;;;;;5070678;28;20198;-80
2021/05/02 02:28:13;;;;;;;24.43;17.10;;;7.30;99.90;;;;;;5071009;28;20266;-80
2021/05/02 02:30:43;;;;;;;26.10;18.17;;;7.40;99.90;;;;;;5066916;28;20657;-80
2021/05/02 02:33:10;;;;;;;23.63;16.90;;;7.40;99.90;;;;;;5068510;28;20217;-80
2021/05/02 02:35:41;;;;;;;24.97;16.73;;;7.30;99.90;;;;;;5070793;28;20206;-80
2021/05/02 02:38:09;;;;;;;24.00;16.50;;;7.30;99.90;;;;;;5069064;28;20202;-80
2021/05/02 02:40:37;;;;;;;26.20;17.43;;;7.30;99.90;;;;;;5069210;28;20205;-80
2021/05/02 02:43:06;;;;;;;25.73;16.43;;;7.30;99.90;;;;;;5069161;28;20616;-80
2021/05/02 02:45:38;;;;;;;24.27;16.43;;;7.30;99.90;;;;;;5065166;28;20211;-80
2021/05/02 02:48:06;;;;;;;25.63;17.57;;;7.30;99.90;;;;;;5063022;28;20202;-80
2021/05/02 02:50:33;;;;;;;26.73;17.67;;;7.30;99.90;;;;;;5071568;28;20198;-80
2021/05/02 02:53:05;;;;;;;26.20;17.80;;;7.30;99.90;;;;;;5071795;28;20206;-80
2021/05/02 02:55:35;;;;;;;27.00;17.77;;;7.30;99.90;;;;;;5070925;28;20289;-80
2021/05/02 02:58:03;;;;;;;25.40;17.03;;;7.40;99.90;;;;;;5070395;28;20611;-80
2021/05/02 03:00:32;;;;;;;27.20;18.33;;;7.40;99.90;;;;;;5071235;28;20247;-80
2021/05/02 03:03:04;;;;;;;26.33;18.47;;;7.30;99.90;;;;;;5068190;28;20213;-80
2021/05/02 03:05:33;;;;;;;26.80;17.43;;;7.30;99.90;;;;;;5071004;28;20567;-80
2021/05/02 03:08:02;;;;;;;27.07;16.33;;;7.20;99.90;;;;;;5070877;28;20202;-80
2021/05/02 03:10:29;;;;;;;25.63;17.33;;;7.10;99.90;;;;;;5067432;28;20597;-80
2021/05/02 03:12:57;;;;;;;27.50;17.37;;;7.10;99.90;;;;;;5070358;28;20628;-80
2021/05/02 03:15:24;;;;;;;23.53;16.37;;;7.00;99.90;;;;;;5070693;28;20217;-81
2021/05/02 03:18:01;;;;;;;25.90;17.53;;;7.10;99.90;;;;;;5070730;28;20218;-80
2021/05/02 03:20:32;;;;;;;24.43;15.67;;;7.10;99.90;;;;;;5070714;28;20206;-81
2021/05/02 03:23:07;;;;;;;24.47;16.87;;;7.00;99.90;;;;;;5071105;28;20217;-80
2021/05/02 03:25:36;;;;;;;26.10;17.17;;;7.10;99.90;;;;;;5069893;28;20211;-80
2021/05/02 03:28:05;;;;;;;24.97;16.40;;;7.20;99.90;;;;;;5070781;28;20206;-81
2021/05/02 03:30:33;;;;;;;23.93;17.50;;;7.20;99.90;;;;;;5069667;28;20198;-80
2021/05/02 03:33:03;;;;;;;24.60;16.90;;;7.10;99.90;;;;;;5069835;28;20206;-80
2021/05/02 03:35:33;;;;;;;24.50;16.57;;;7.10;99.90;;;;;;5070655;28;20206;-80
2021/05/02 03:38:11;;;;;;;23.07;15.53;;;7.10;99.90;;;;;;5069581;28;20689;-80
2021/05/02 03:40:38;;;;;;;22.07;14.90;;;7.10;99.90;;;;;;5069786;28;20209;-80
2021/05/02 03:43:05;;;;;;;22.33;14.90;;;7.20;99.90;;;;;;5069996;28;20194;-80
2021/05/02 03:45:32;;;;;;;24.73;15.80;;;7.10;99.90;;;;;;5071708;28;20245;-80
2021/05/02 03:47:59;;;;;;;24.50;16.57;;;7.00;99.90;;;;;;5073577;28;20199;-80
2021/05/02 03:50:25;;;;;;;23.23;16.30;;;7.00;99.90;;;;;;5073613;28;20214;-80
2021/05/02 03:52:52;;;;;;;23.87;15.83;;;7.10;99.90;;;;;;5074677;28;20202;-80
2021/05/02 03:55:19;;;;;;;24.67;17.73;;;7.00;99.90;;;;;;5072634;28;20653;-80
2021/05/02 03:57:46;;;;;;;26.07;18.10;;;6.90;99.90;;;;;;5073730;28;20255;-80
2021/05/02 04:00:13;;;;;;;27.67;18.70;;;6.90;99.90;;;;;;5073153;28;20206;-80
2021/05/02 04:02:40;;;;;;;29.00;18.77;;;7.00;99.90;;;;;;5072410;28;20251;-80
2021/05/02 04:05:07;;;;;;;28.97;19.70;;;7.00;99.90;;;;;;5073253;28;20243;-80
2021/05/02 04:07:33;;;;;;;27.67;18.90;;;7.00;99.90;;;;;;5069506;28;20202;-80
2021/05/02 04:10:00;;;;;;;28.70;20.57;;;6.90;99.90;;;;;;5072235;28;20616;-80
2021/05/02 04:12:27;;;;;;;28.13;19.13;;;6.90;99.90;;;;;;5072672;28;20252;-80
2021/05/02 04:14:55;;;;;;;29.27;19.17;;;6.90;99.90;;;;;;5071785;28;20198;-80
2021/05/02 04:17:21;;;;;;;29.70;20.47;;;6.90;99.90;;;;;;5071845;28;20247;-80
2021/05/02 04:19:51;;;;;;;31.13;20.83;;;6.90;99.90;;;;;;5073086;28;20206;-80
2021/05/02 04:22:19;;;;;;;29.53;20.30;;;6.90;99.90;;;;;;5072907;28;20297;-80
2021/05/02 04:24:46;;;;;;;28.43;19.47;;;7.00;99.90;;;;;;5073203;28;20260;-80
2021/05/02 04:27:13;;;;;;;30.80;20.57;;;6.90;99.90;;;;;;5071930;28;20230;-80
2021/05/02 04:29:40;;;;;;;29.90;19.97;;;7.00;99.90;;;;;;5066818;28;20728;-80
2021/05/02 04:32:07;;;;;;;30.53;20.10;;;6.90;99.90;;;;;;5065303;28;20202;-80
2021/05/02 04:34:33;;;;;;;31.37;19.47;;;6.90;99.90;;;;;;5071827;28;20207;-80
2021/05/02 04:37:00;;;;;;;29.03;18.73;;;6.90;99.90;;;;;;5073601;28;20198;-79
2021/05/02 04:39:27;;;;;;;27.40;18.53;;;6.90;99.90;;;;;;5071651;28;20202;-80
2021/05/02 04:41:54;;;;;;;28.50;19.93;;;6.90;99.90;;;;;;5072307;28;20258;-80
2021/05/02 04:44:21;;;;;;;26.23;18.83;;;7.00;99.90;;;;;;5072385;28;20229;-79
2021/05/02 04:46:48;;;;;;;27.80;19.13;;;7.00;99.90;;;;;;5071670;28;20206;-80
2021/05/02 04:49:15;;;;;;;26.23;17.77;;;7.00;99.90;;;;;;5072610;28;20198;-81
2021/05/02 04:51:42;;;;;;;27.43;18.17;;;7.00;99.90;;;;;;5072186;28;20202;-81
2021/05/02 04:54:09;;;;;;;26.83;18.10;;;7.00;99.90;;;;;;5071214;28;20652;-81
2021/05/02 04:56:35;;;;;;;28.10;19.40;;;7.10;99.90;;;;;;5072965;28;20611;-80
2021/05/02 04:59:02;;;;;;;27.60;17.93;;;7.20;99.90;;;;;;5072810;28;20214;-81
2021/05/02 05:01:28;;;;;;;26.63;17.33;;;7.20;99.90;;;;;;5069331;28;20711;-80
2021/05/02 05:03:56;;;;;;;23.27;16.20;;;7.20;99.90;;;;;;5072187;28;20226;-81
2021/05/02 05:06:23;;;;;;;25.90;16.77;;;7.20;99.90;;;;;;5065091;28;20203;-80
2021/05/02 05:08:50;;;;;;;23.23;16.37;;;7.20;99.90;;;;;;5071404;28;20272;-81
2021/05/02 05:11:18;;;;;;;24.33;15.73;;;7.30;99.90;;;;;;5072426;28;20660;-80
2021/05/02 05:13:44;;;;;;;25.67;15.03;;;7.20;99.90;;;;;;5072558;28;20202;-81
2021/05/02 05:16:11;;;;;;;20.87;13.93;;;7.20;99.90;;;;;;5072898;28;20208;-81
2021/05/02 05:18:37;;;;;;;21.33;14.10;;;7.20;99.90;;;;;;5072782;28;20214;-80
2021/05/02 05:21:05;;;;;;;20.77;13.77;;;7.20;99.90;;;;;;5073013;28;20240;-81
2021/05/02 05:23:31;;;;;;;21.80;14.53;;;7.30;99.90;;;;;;5072585;28;20287;-81
2021/05/02 05:25:58;;;;;;;20.93;14.10;;;7.40;99.90;;;;;;5073298;28;20636;-81
2021/05/02 05:28:24;;;;;;;20.20;13.13;;;7.50;99.90;;;;;;5071891;28;20210;-81
2021/05/02 05:30:50;;;;;;;18.07;12.13;;;7.40;99.90;;;;;;5072701;28;20355;-80
2021/05/02 05:33:17;;;;;;;19.97;12.87;;;7.50;99.90;;;;;;5072355;28;20567;-80
2021/05/02 05:35:43;;;;;;;19.00;11.93;;;7.40;99.90;;;;;;5071950;28;20198;-80
2021/05/02 05:38:11;;;;;;;17.97;12.17;;;7.50;99.90;;;;;;5067999;28;20194;-81
2021/05/02 05:40:38;;;;;;;20.90;13.00;;;7.60;99.90;;;;;;5073012;28;20199;-81
2021/05/02 05:43:04;;;;;;;19.87;12.97;;;7.70;99.90;;;;;;5071847;28;20243;-80
2021/05/02 05:45:33;;;;;;;17.90;11.60;;;7.80;99.90;;;;;;5072577;28;20643;-81
2021/05/02 05:48:00;;;;;;;17.10;11.30;;;7.80;99.90;;;;;;5071783;28;20615;-81
2021/05/02 05:50:28;;;;;;;19.80;11.60;;;7.90;99.90;;;;;;5072571;28;20203;-81
2021/05/02 05:52:55;;;;;;;15.47;10.13;;;8.00;99.90;;;;;;5072332;28;20319;-80
2021/05/02 05:55:22;;;;;;;15.33;10.63;;;8.00;99.90;;;;;;5071885;28;20198;-81
2021/05/02 05:57:50;;;;;;;15.97;10.17;;;8.10;99.90;;;;;;5072115;28;20203;-81
2021/05/02 06:00:18;;;;;;;17.43;10.97;;;8.30;99.90;;;;;;5070945;28;20297;-81
2021/05/02 06:02:44;;;;;;;16.30;10.43;;;8.20;99.90;;;;;;5075836;28;20573;-81
2021/05/02 06:05:11;;;;;;;16.10;10.77;;;8.30;99.90;;;;;;5065521;28;20312;-82
2021/05/02 06:07:38;;;;;;;17.90;10.87;;;8.40;99.90;;;;;;5070739;28;20545;-82
2021/05/02 06:10:05;;;;;;;14.80;9.80;;;8.60;99.90;;;;;;5072138;28;20199;-81
2021/05/02 06:12:33;;;;;;;15.23;10.33;;;8.70;99.90;;;;;;5071564;28;20207;-82
2021/05/02 06:15:00;;;;;;;14.53;9.97;;;8.70;99.90;;;;;;5071563;28;20202;-75
2021/05/02 06:17:27;;;;;;;15.80;10.47;;;8.70;99.90;;;;;;5071430;28;20255;-75
2021/05/02 06:19:54;;;;;;;15.60;10.40;;;8.70;99.90;;;;;;5071122;28;20657;-75
2021/05/02 06:22:21;;;;;;;15.20;9.73;;;8.50;99.90;;;;;;5071770;28;20649;-75
2021/05/02 06:24:47;;;;;;;16.63;10.70;;;8.50;99.90;;;;;;5070515;28;20675;-75
2021/05/02 06:27:14;;;;;;;16.40;10.73;;;8.60;99.90;;;;;;5067101;28;20728;-75
2021/05/02 06:29:41;;;;;;;17.07;10.50;;;8.60;99.90;;;;;;5071091;28;20282;-72
2021/05/02 06:32:08;;;;;;;14.13;9.33;;;8.80;99.90;;;;;;5071342;28;20198;-71
2021/05/02 06:34:34;;;;;;;15.77;10.27;;;8.80;99.90;;;;;;5071340;28;20195;-72
2021/05/02 06:37:01;;;;;;;17.77;10.73;;;8.90;99.90;;;;;;5069002;28;20202;-72
2021/05/02 06:39:28;;;;;;;14.23;10.00;;;8.80;99.90;;;;;;5071742;28;20206;-74
2021/05/02 06:41:54;;;;;;;14.33;9.27;;;8.80;99.90;;;;;;5069443;28;20201;-71
2021/05/02 06:44:21;;;;;;;14.63;9.83;;;9.00;99.90;;;;;;5072902;28;20271;-69
2021/05/02 06:46:48;;;;;;;13.63;9.40;;;9.20;99.90;;;;;;5071145;28;20202;-74
2021/05/02 06:49:15;;;;;;;15.97;10.63;;;9.20;99.90;;;;;;5071071;28;20273;-71
2021/05/02 06:51:41;;;;;;;13.87;9.10;;;9.50;99.90;;;;;;5070230;28;20198;-70
2021/05/02 06:54:08;;;;;;;14.20;9.40;;;9.40;99.90;;;;;;5071109;28;20651;-75
2021/05/02 06:56:35;;;;;;;12.83;8.80;;;9.50;99.90;;;;;;5067770;28;20648;-75
2021/05/02 06:59:01;;;;;;;15.10;9.60;;;9.40;99.90;;;;;;5068323;28;20255;-75
2021/05/02 07:01:28;;;;;;;12.53;8.70;;;9.20;99.90;;;;;;5069944;28;20216;-75
2021/05/02 07:03:55;;;;;;;15.53;10.40;;;9.30;99.90;;;;;;5056724;28;20322;-75
2021/05/02 07:06:22;;;;;;;15.50;9.87;;;9.90;99.90;;;;;;5068663;28;20562;-75
2021/05/02 07:08:48;;;;;;;15.43;9.73;;;10.10;99.90;;;;;;5067902;28;20202;-75
2021/05/02 07:11:15;;;;;;;16.33;9.87;;;10.20;99.90;;;;;;5065559;28;20205;-75
2021/05/02 07:13:41;;;;;;;13.27;8.77;;;10.90;99.90;;;;;;5068941;28;20198;-75
2021/05/02 07:16:09;;;;;;;13.37;8.77;;;10.90;99.90;;;;;;5069396;28;20952;-75
2021/05/02 07:18:37;;;;;;;11.37;8.00;;;11.40;99.90;;;;;;5067320;28;20202;-70
2021/05/02 07:21:06;;;;;;;12.23;8.03;;;10.80;99.90;;;;;;5068146;28;20210;-70
2021/05/02 07:23:35;;;;;;;11.27;8.27;;;10.90;99.90;;;;;;5072465;28;20293;-69
2021/05/02 07:26:02;;;;;;;13.43;8.70;;;11.10;99.90;;;;;;5067103;28;20656;-68
2021/05/02 07:28:29;;;;;;;13.13;8.60;;;11.30;99.90;;;;;;5071650;28;20621;-70
2021/05/02 07:30:56;;;;;;;11.77;8.17;;;11.30;99.90;;;;;;5072606;28;20202;-69
2021/05/02 07:33:23;;;;;;;12.80;8.57;;;11.30;99.90;;;;;;5072408;28;20207;-70
2021/05/02 07:35:49;;;;;;;11.93;8.17;;;11.30;99.90;;;;;;5069333;28;20210;-71
2021/05/02 07:38:17;;;;;;;10.97;8.33;;;11.30;99.90;;;;;;5072830;28;20240;-71
2021/05/02 07:40:43;;;;;;;11.60;8.47;;;11.20;99.90;;;;;;5071401;28;20571;-68
2021/05/02 07:43:10;;;;;;;11.07;8.13;;;11.30;99.90;;;;;;5070703;28;20198;-70
2021/05/02 07:45:36;;;;;;;13.97;8.97;;;11.20;99.90;;;;;;5072404;28;20326;-70
2021/05/02 07:48:03;;;;;;;11.33;7.93;;;11.10;99.90;;;;;;5071799;28;20210;-69
2021/05/02 07:50:29;;;;;;;9.70;6.20;;;10.90;99.90;;;;;;5071536;28;20718;-69
2021/05/02 07:52:56;;;;;;;8.20;5.90;;;11.30;99.90;;;;;;5072113;28;20233;-68
2021/05/02 07:55:23;;;;;;;8.10;5.73;;;11.50;99.90;;;;;;5072023;28;20209;-68
2021/05/02 07:57:49;;;;;;;10.30;7.73;;;11.60;99.90;;;;;;5071494;28;20567;-68
2021/05/02 08:00:19;;;;;;;13.13;9.10;;;11.40;99.90;;;;;;5071685;28;20198;-68
2021/05/02 08:02:46;;;;;;;13.30;9.97;;;11.20;99.90;;;;;;5071893;28;20255;-68
2021/05/02 08:05:12;;;;;;;13.00;9.53;;;10.90;99.90;;;;;;5071643;28;20268;-68
2021/05/02 08:07:39;;;;;;;16.37;9.47;;;10.90;99.90;;;;;;5071405;28;20206;-67
2021/05/02 08:10:07;;;;;;;14.13;8.97;;;10.80;99.90;;;;;;5071609;28;20210;-68
2021/05/02 08:12:34;;;;;;;10.30;7.33;;;10.90;99.90;;;;;;5070919;28;20280;-68
2021/05/02 08:15:00;;;;;;;11.57;7.60;;;10.60;99.90;;;;;;5066503;28;20551;-68
2021/05/02 08:17:27;;;;;;;13.00;7.50;;;10.40;99.90;;;;;;5073730;28;20206;-68
2021/05/02 08:19:53;;;;;;;11.40;7.67;;;10.30;99.90;;;;;;5072761;28;20202;-68
2021/05/02 08:22:20;;;;;;;11.83;7.40;;;10.40;99.90;;;;;;5069641;28;20241;-68
2021/05/02 08:24:47;;;;;;;10.93;7.73;;;10.90;99.90;;;;;;5066847;28;20222;-68
2021/05/02 08:27:14;;;;;;;12.30;7.50;;;11.40;99.90;;;;;;5069342;28;20214;-68
2021/05/02 08:29:41;;;;;;;12.43;7.97;;;11.90;99.90;;;;;;5070386;28;20221;-68
2021/05/02 08:32:07;;;;;;;12.80;8.20;;;11.90;99.90;;;;;;5068735;28;20206;-68
2021/05/02 08:34:33;;;;;;;15.37;9.80;;;12.00;99.90;;;;;;5069801;28;20762;-67
2021/05/02 08:37:00;;;;;;;11.27;8.73;;;12.50;99.90;;;;;;5070662;28;20205;-68
2021/05/02 08:39:27;;;;;;;12.80;8.67;;;12.60;99.90;;;;;;5056287;28;20676;-67
2021/05/02 08:41:53;;;;;;;13.10;8.67;;;12.30;99.90;;;;;;5068892;28;20206;-67
2021/05/02 08:44:24;;;;;;;12.30;8.70;;;12.00;99.90;;;;;;5069766;28;20422;-69
2021/05/02 08:46:51;;;;;;;12.50;8.47;;;11.50;99.90;;;;;;5061429;28;20207;-69
2021/05/02 08:49:18;;;;;;;12.90;9.07;;;11.20;99.90;;;;;;5062109;28;20572;-67
2021/05/02 08:51:45;;;;;;;13.43;9.03;;;10.90;99.90;;;;;;5070852;28;20209;-68
2021/05/02 08:54:11;;;;;;;12.70;8.83;;;10.90;99.90;;;;;;5063207;28;20679;-69
2021/05/02 08:56:37;;;;;;;12.27;8.00;;;11.00;99.90;;;;;;5066302;28;20210;-69
2021/05/02 08:59:04;;;;;;;12.30;8.03;;;11.00;99.90;;;;;;5069508;28;20732;-68
2021/05/02 09:01:31;;;;;;;12.97;8.37;;;10.90;99.90;;;;;;5069311;28;20202;-68
2021/05/02 09:04:02;;;;;;;13.93;9.27;;;10.80;99.90;;;;;;5069618;28;20253;-68
2021/05/02 09:06:29;;;;;;;14.90;8.93;;;10.40;99.90;;;;;;5069532;28;20210;-68
2021/05/02 09:08:58;;;;;;;11.73;8.10;;;10.40;99.90;;;;;;5068206;28;20226;-69
2021/05/02 09:11:33;;;;;;;14.57;9.57;;;10.30;99.90;;;;;;5064166;28;20206;-68
2021/05/02 09:14:02;;;;;;;13.10;8.50;;;10.30;99.90;;;;;;5069028;28;20655;-68
2021/05/02 09:16:29;;;;;;;12.13;8.17;;;10.30;99.90;;;;;;5069251;28;20205;-68
2021/05/02 09:19:00;;;;;;;17.20;9.00;;;10.30;99.90;;;;;;5068300;28;20635;-68
2021/05/02 09:21:29;;;;;;;13.47;8.57;;;10.20;99.90;;;;;;5068401;28;20217;-68
2021/05/02 09:23:56;;;;;;;13.70;8.13;;;10.60;99.90;;;;;;5065000;28;20222;-68
2021/05/02 09:26:23;;;;;;;13.93;8.10;;;10.70;99.90;;;;;;5068411;28;20581;-68
2021/05/02 09:28:53;;;;;;;12.40;8.30;;;10.70;99.90;;;;;;5068062;28;20210;-68
2021/05/02 09:31:20;;;;;;;15.33;8.90;;;10.70;99.90;;;;;;5069400;28;20218;-68
2021/05/02 09:33:47;;;;;;;14.97;9.63;;;10.80;99.90;;;;;;5068524;28;20202;-68
2021/05/02 09:36:16;;;;;;;13.30;9.23;;;10.80;99.90;;;;;;5064361;28;20203;-68
2021/05/02 09:38:44;;;;;;;15.37;9.70;;;10.70;99.90;;;;;;5067730;28;20209;-68
2021/05/02 09:41:13;;;;;;;13.57;9.37;;;10.70;99.90;;;;;;5067528;28;20210;-68
2021/05/02 09:43:45;;;;;;;14.13;9.13;;;10.70;99.90;;;;;;5066350;28;20214;-68
2021/05/02 09:46:26;;;;;;;20.53;9.83;;;10.40;99.90;;;;;;5067735;28;20212;-68
2021/05/02 09:49:11;;;;;;;16.70;9.40;;;10.40;99.90;;;;;;5066264;28;20198;-68
2021/05/02 09:51:43;;;;;;;15.80;10.37;;;10.40;99.90;;;;;;5062088;28;20216;-68
2021/05/02 09:54:12;;;;;;;15.13;10.03;;;10.40;99.90;;;;;;5057765;28;20255;-68
2021/05/02 09:56:41;;;;;;;14.93;9.67;;;10.40;99.90;;;;;;5068845;28;20216;-68
2021/05/02 09:59:20;;;;;;;16.60;10.43;;;10.10;99.90;;;;;;5067658;28;20207;-68
2021/05/02 10:02:22;;;;;;;23.40;10.77;;;10.10;99.90;;;;;;5064666;28;20206;-68
2021/05/02 10:04:51;;;;;;;16.40;10.20;;;9.90;99.90;;;;;;4985978;28;21082;-68
2021/05/02 10:07:20;;;;;;;17.53;11.50;;;9.90;99.90;;;;;;4985468;28;20205;-68
2021/05/02 10:09:46;;;;;;;18.13;11.43;;;9.90;99.90;;;;;;5023247;28;20542;-68
2021/05/02 10:12:15;;;;;;;15.90;10.17;;;10.00;99.90;;;;;;5067916;28;20268;-68
2021/05/02 10:14:42;;;;;;;16.50;10.43;;;9.90;99.90;;;;;;5067470;28;20655;-68
2021/05/02 10:17:10;;;;;;;17.10;10.60;;;10.00;99.90;;;;;;5068275;28;20630;-68
2021/05/02 10:19:36;;;;;;;13.93;9.70;;;10.00;99.90;;;;;;5065730;28;20672;-68
2021/05/02 10:22:02;;;;;;;15.20;10.20;;;10.30;99.90;;;;;;5067426;28;20206;-66
2021/05/02 10:24:30;;;;;;;15.43;8.90;;;10.50;99.90;;;;;;5065658;28;20218;-68
2021/05/02 10:26:57;;;;;;;16.83;10.03;;;10.70;99.90;;;;;;5063529;28;20218;-68
2021/05/02 10:29:25;;;;;;;15.70;9.73;;;11.10;99.90;;;;;;5067606;28;20259;-70
2021/05/02 10:31:57;;;;;;;13.43;9.23;;;11.20;99.90;;;;;;5068549;28;20220;-69
2021/05/02 10:34:28;;;;;;;15.07;9.47;;;11.20;99.90;;;;;;5066981;28;20217;-67
2021/05/02 10:37:28;;;;;;;14.50;8.73;;;10.80;99.90;;;;;;5067557;28;20207;-67
2021/05/02 10:39:56;;;;;;;14.67;9.57;;;10.50;99.90;;;;;;5068100;28;20569;-68
2021/05/02 10:42:44;;;;;;;14.07;9.60;;;10.40;99.90;;;;;;5068484;28;20743;-67
2021/05/02 10:45:48;;;;;;;9.80;5.20;;;10.10;99.90;;;;;;5062734;28;20218;-71
2021/05/02 10:48:49;;;;;;;7.13;5.10;;;8.90;99.90;;;;;;5044443;28;20201;-70
2021/05/02 10:51:30;;;;;;;10.77;6.37;;;8.40;99.90;;;;;;5064272;28;20210;-71
2021/05/02 10:54:08;;;;;;;10.87;7.10;;;8.10;99.90;;;;;;5068176;28;20202;-70
2021/05/02 10:56:51;;;;;;;9.83;7.03;;;8.10;99.90;;;;;;5066065;28;20210;-77
2021/05/02 10:59:19;;;;;;;12.07;8.27;;;8.00;99.90;;;;;;5066147;28;20787;-72
2021/05/02 11:01:46;;;;;;;13.03;7.97;;;8.30;99.90;;;;;;5066265;28;20218;-69
2021/05/02 11:04:13;;;;;;;10.47;7.40;;;8.30;99.90;;;;;;5067111;28;20229;-71
2021/05/02 11:07:02;;;;;;;9.63;6.63;;;8.40;99.90;;;;;;5068287;28;20697;-72
2021/05/02 11:09:50;;;;;;;9.73;6.87;;;8.40;99.90;;;;;;5066571;28;20245;-68
2021/05/02 11:12:35;;;;;;;13.77;8.30;;;8.70;99.90;;;;;;5064687;28;20206;-69
2021/05/02 11:15:37;;;;;;;12.90;7.83;;;8.90;99.90;;;;;;5061820;28;20201;-68
2021/05/02 11:18:04;;;;;;;12.30;7.60;;;9.00;99.90;;;;;;5063984;28;20213;-71
2021/05/02 11:20:47;;;;;;;11.63;7.47;;;9.00;99.90;;;;;;5065548;28;20210;-73
2021/05/02 11:23:14;;;;;;;14.03;8.33;;;9.10;99.90;;;;;;5062892;28;20656;-72
2021/05/02 11:25:43;;;;;;;11.17;7.67;;;9.20;99.90;;;;;;5067256;28;20218;-68
2021/05/02 11:28:11;;;;;;;11.80;7.57;;;9.20;99.90;;;;;;5063926;28;20225;-70
2021/05/02 11:30:47;;;;;;;10.50;7.13;;;9.40;99.90;;;;;;5065528;28;20259;-73
2021/05/02 11:33:22;;;;;;;12.20;7.27;;;9.40;99.90;;;;;;5063722;28;20202;-75
2021/05/02 11:35:56;;;;;;;13.63;7.43;;;9.40;99.90;;;;;;5046400;28;20209;-74
2021/05/02 11:38:41;;;;;;;10.17;7.00;;;9.40;99.90;;;;;;5065090;28;20265;-74
2021/05/02 11:41:10;;;;;;;12.03;6.97;;;9.40;99.90;;;;;;5063119;28;20206;-74
2021/05/02 11:43:43;;;;;;;12.67;8.23;;;9.40;99.90;;;;;;5064625;28;20629;-74
2021/05/02 11:46:19;;;;;;;11.27;7.07;;;9.40;99.90;;;;;;5064000;28;20241;-73
2021/05/02 11:48:48;;;;;;;8.57;6.13;;;9.60;99.90;;;;;;5063233;28;20221;-74
2021/05/02 11:51:24;;;;;;;11.60;6.70;;;9.80;99.90;;;;;;5064936;28;20652;-72
2021/05/02 11:53:52;;;;;;;11.50;6.40;;;9.80;99.90;;;;;;5062789;22;20245;-80
2021/05/02 11:56:24;;;;;;;10.00;6.33;;;9.90;99.90;;;;;;5044032;28;20213;-81
2021/05/02 11:58:53;;;;;;;11.67;6.73;;;10.10;99.90;;;;;;5025984;28;20231;-82
2021/05/02 12:01:21;;;;;;;10.77;6.30;;;10.30;99.90;;;;;;5037210;28;20207;-80
2021/05/02 12:03:48;;;;;;;10.60;6.40;;;10.30;99.90;;;;;;5040844;28;20213;-80
2021/05/02 12:06:28;;;;;;;12.00;7.63;;;10.30;99.90;;;;;;5046393;22;20243;-76
2021/05/02 12:09:50;;;;;;;10.83;6.70;;;10.30;99.90;;;;;;5067799;28;20222;-78
2021/05/02 12:12:22;;;;;;;10.10;6.50;;;10.40;99.90;;;;;;5066885;28;20583;-80
2021/05/02 12:18:45;;;;;;;10.97;6.60;;;10.50;99.90;;;;;;5063781;28;20207;-77
2021/05/02 12:21:41;;;;;;;8.93;6.07;;;10.60;99.90;;;;;;5041435;28;20259;-78
2021/05/02 12:24:11;;;;;;;8.30;5.73;;;10.50;99.90;;;;;;5018687;28;20211;-78
2021/05/02 12:26:42;;;;;;;7.87;5.73;;;10.40;99.90;;;;;;5047799;28;20202;-80
2021/05/02 12:29:10;;;;;;;9.97;6.10;;;10.60;99.90;;;;;;5059719;28;20631;-79
2021/05/02 12:31:37;;;;;;;9.03;5.77;;;10.90;99.90;;;;;;5061743;28;20295;-79
2021/05/02 12:34:06;;;;;;;9.47;5.90;;;10.90;99.90;;;;;;5060057;28;20429;-79
2021/05/02 12:36:33;;;;;;;9.23;6.60;;;10.90;99.90;;;;;;5058016;28;20210;-79
2021/05/02 12:39:01;;;;;;;7.87;5.40;;;10.80;99.90;;;;;;5055463;28;20535;-78
2021/05/02 12:41:28;;;;;;;9.40;5.27;;;10.70;99.90;;;;;;5059828;28;20625;-78
2021/05/02 12:43:54;;;;;;;10.37;5.77;;;10.60;99.90;;;;;;5052091;28;20210;-78
2021/05/02 12:46:41;;;;;;;11.50;6.40;;;10.80;99.90;;;;;;5059638;28;20628;-76
2021/05/02 12:49:19;;;;;;;11.93;6.97;;;10.70;99.90;;;;;;5061914;28;20209;-78
2021/05/02 12:51:49;;;;;;;9.40;6.17;;;10.60;99.90;;;;;;5063424;28;20207;-77
2021/05/02 12:54:18;;;;;;;10.97;5.97;;;10.80;99.90;;;;;;5062858;28;20663;-77